createdAt,value
2023-03-07T00:04:02.317Z,66.00
2023-03-07T00:09:23.150Z,65.83
2023-03-07T00:14:43.793Z,66.38
2023-03-07T00:20:07.459Z,66.36
2023-03-07T00:25:28.072Z,65.81
2023-03-07T00:30:48.857Z,65.40
2023-03-07T00:36:21.099Z,65.84
2023-03-07T00:41:42.081Z,65.49
2023-03-07T00:47:02.841Z,65.44
2023-03-07T00:52:24.112Z,66.01
2023-03-07T00:57:44.809Z,66.02
2023-03-07T01:03:05.485Z,65.72
2023-03-07T01:08:26.164Z,65.06
2023-03-07T01:13:47.093Z,65.67
2023-03-07T01:19:12.470Z,65.19
2023-03-07T01:24:32.972Z,65.45
2023-03-07T01:29:53.700Z,65.65
2023-03-07T01:35:15.045Z,66.03
2023-03-07T01:40:38.507Z,65.48
2023-03-07T01:46:18.113Z,65.47
2023-03-07T01:51:46.441Z,65.38
2023-03-07T01:57:08.004Z,65.58
2023-03-07T02:02:29.488Z,66.38
2023-03-07T02:07:52.845Z,65.70
2023-03-07T02:13:17.960Z,66.18
2023-03-07T02:18:44.533Z,66.41
2023-03-07T02:24:05.409Z,65.90
2023-03-07T02:29:26.739Z,65.81
2023-03-07T02:34:47.434Z,65.68
2023-03-07T02:40:14.514Z,65.67
2023-03-07T02:45:35.780Z,66.34
2023-03-07T02:50:56.642Z,66.03
2023-03-07T02:56:18.067Z,65.97
2023-03-07T03:01:39.334Z,66.04
2023-03-07T03:07:00.025Z,66.55
2023-03-07T03:12:20.771Z,66.40
2023-03-07T03:17:41.727Z,66.53
2023-03-07T03:23:02.495Z,66.65
2023-03-07T03:28:23.198Z,66.69
2023-03-07T03:33:44.863Z,66.44
2023-03-07T03:39:10.963Z,67.06
2023-03-07T03:44:36.973Z,66.98
2023-03-07T03:49:57.524Z,66.82
2023-03-07T03:55:18.714Z,66.24
2023-03-07T04:00:39.526Z,66.19
2023-03-07T04:06:09.065Z,66.67
2023-03-07T04:11:30.038Z,66.53
2023-03-07T04:16:50.707Z,66.59
2023-03-07T04:22:11.494Z,65.72
2023-03-07T04:27:35.265Z,66.13
2023-03-07T04:32:56.927Z,66.11
2023-03-07T04:38:17.524Z,66.47
2023-03-07T04:43:38.445Z,65.65
2023-03-07T04:48:59.076Z,65.73
2023-03-07T04:54:20.849Z,65.86
2023-03-07T04:59:43.562Z,66.12
2023-03-07T05:05:05.841Z,66.13
2023-03-07T05:10:27.735Z,65.90
2023-03-07T05:15:53.703Z,66.34
2023-03-07T05:21:16.066Z,66.39
2023-03-07T05:26:36.948Z,66.01
2023-03-07T05:31:58.949Z,65.96
2023-03-07T05:37:20.752Z,65.75
2023-03-07T05:42:41.958Z,65.88
2023-03-07T05:48:03.237Z,66.12
2023-03-07T05:53:24.871Z,65.68
2023-03-07T05:58:46.615Z,66.06
2023-03-07T06:04:08.260Z,65.95
2023-03-07T06:09:29.504Z,65.96
2023-03-07T06:14:52.615Z,65.90
2023-03-07T06:20:14.376Z,66.10
2023-03-07T06:25:35.181Z,65.35
2023-03-07T06:30:56.191Z,65.96
2023-03-07T06:36:18.847Z,65.74
2023-03-07T06:41:43.248Z,65.53
2023-03-07T06:47:04.984Z,66.16
2023-03-07T06:52:26.547Z,65.62
2023-03-07T06:57:47.408Z,65.28
2023-03-07T07:03:12.755Z,65.71
2023-03-07T07:08:33.631Z,64.93
2023-03-07T07:13:55.015Z,64.79
2023-03-07T07:19:16.974Z,65.27
2023-03-07T07:24:39.387Z,65.33
2023-03-07T07:30:01.144Z,65.43
2023-03-07T07:35:22.386Z,64.78
2023-03-07T07:40:45.137Z,64.71
2023-03-07T07:46:07.722Z,65.23
2023-03-07T07:51:28.766Z,64.40
2023-03-07T07:56:50.128Z,64.57
2023-03-07T08:02:13.871Z,64.29
2023-03-07T08:07:34.816Z,63.90
2023-03-07T08:12:55.484Z,65.01
2023-03-07T08:18:16.136Z,64.04
2023-03-07T08:23:37.043Z,63.78
2023-03-07T08:28:58.987Z,64.32
2023-03-07T08:34:19.926Z,64.60
2023-03-07T08:39:40.755Z,64.10
2023-03-07T08:45:01.635Z,64.20
2023-03-07T08:50:28.305Z,64.10
2023-03-07T08:55:49.267Z,64.33
2023-03-07T09:01:11.014Z,64.21
2023-03-07T09:06:31.724Z,64.37
2023-03-07T09:11:52.838Z,64.56
2023-03-07T09:17:13.548Z,64.47
2023-03-07T09:22:34.345Z,64.33
2023-03-07T09:27:56.547Z,64.41
2023-03-07T09:33:17.298Z,64.29
2023-03-07T09:38:38.535Z,63.96
2023-03-07T09:44:05.363Z,64.54
2023-03-07T09:49:54.343Z,64.58
2023-03-07T09:55:20.823Z,64.38
2023-03-07T10:00:43.089Z,64.73
2023-03-07T10:06:20.099Z,63.81
2023-03-07T10:11:53.684Z,63.62
2023-03-07T10:17:22.497Z,63.49
2023-03-07T10:22:52.718Z,63.78
2023-03-07T10:28:25.179Z,63.64
2023-03-07T10:33:48.719Z,63.46
2023-03-07T10:39:27.729Z,63.49
2023-03-07T10:44:51.052Z,63.85
2023-03-07T10:50:37.120Z,64.15
2023-03-07T10:56:15.618Z,63.70
2023-03-07T11:01:39.011Z,64.05
2023-03-07T11:07:01.176Z,63.99
2023-03-07T11:12:24.575Z,63.74
2023-03-07T11:17:48.468Z,63.64
2023-03-07T11:23:23.676Z,63.42
2023-03-07T11:28:44.330Z,63.20
2023-03-07T11:34:42.341Z,62.71
2023-03-07T11:40:23.639Z,62.99
2023-03-07T11:45:47.526Z,62.77
2023-03-07T11:51:26.324Z,62.66
2023-03-07T11:56:52.045Z,62.59
2023-03-07T12:02:56.997Z,62.39
2023-03-07T12:08:30.841Z,62.30
2023-03-07T12:14:20.508Z,61.98
2023-03-07T12:20:12.652Z,61.86
2023-03-07T12:25:53.630Z,61.83
2023-03-07T12:31:23.383Z,61.38
2023-03-07T12:37:03.107Z,61.20
2023-03-07T12:42:32.817Z,60.94
2023-03-07T12:47:57.519Z,62.73
2023-03-07T12:53:35.612Z,60.81
2023-03-07T12:59:10.330Z,60.98
2023-03-07T13:04:36.435Z,60.89
2023-03-07T13:09:59.367Z,60.88
2023-03-07T13:15:21.011Z,60.94
2023-03-07T13:20:43.686Z,60.58
2023-03-07T13:26:11.104Z,60.79
2023-03-07T13:31:39.516Z,60.75
2023-03-07T13:37:38.893Z,60.54
2023-03-07T13:42:59.907Z,60.30
2023-03-07T13:48:20.577Z,60.14
2023-03-07T13:54:07.306Z,60.23
2023-03-07T13:59:28.396Z,60.36
2023-03-07T14:04:55.779Z,60.25
2023-03-07T14:10:28.722Z,59.71
2023-03-07T14:16:10.333Z,59.59
2023-03-07T14:21:46.351Z,59.71
2023-03-07T14:27:14.146Z,59.51
2023-03-07T14:32:35.514Z,59.40
2023-03-07T14:37:56.411Z,59.36
2023-03-07T14:43:50.466Z,60.04
2023-03-07T14:49:42.323Z,58.71
2023-03-07T14:55:06.876Z,58.79
2023-03-07T15:00:29.293Z,58.47
2023-03-07T15:05:57.372Z,58.24
2023-03-07T15:11:27.937Z,58.64
2023-03-07T15:16:50.408Z,58.60
2023-03-07T15:22:26.451Z,58.15
2023-03-07T15:27:58.623Z,58.28
2023-03-07T15:33:19.483Z,58.29
2023-03-07T15:38:43.147Z,58.22
2023-03-07T15:44:19.888Z,58.45
2023-03-07T15:49:47.403Z,59.65
2023-03-07T15:55:20.342Z,58.27
2023-03-07T16:00:42.311Z,58.17
2023-03-07T16:06:03.343Z,58.37
2023-03-07T16:11:24.420Z,57.77
2023-03-07T16:16:45.114Z,60.40
2023-03-07T16:22:13.597Z,58.09
2023-03-07T16:27:34.367Z,58.18
2023-03-07T16:32:55.701Z,57.86
2023-03-07T16:38:16.836Z,57.78
2023-03-07T16:43:38.652Z,57.95
2023-03-07T16:48:59.593Z,58.29
2023-03-07T16:54:20.754Z,58.49
2023-03-07T16:59:48.119Z,58.67
2023-03-07T17:05:17.642Z,58.66
2023-03-07T17:10:39.931Z,58.26
2023-03-07T17:16:01.203Z,58.13
2023-03-07T17:21:23.082Z,58.32
2023-03-07T17:26:45.711Z,58.17
2023-03-07T17:32:07.583Z,58.28
2023-03-07T17:37:29.981Z,58.60
2023-03-07T17:42:52.062Z,58.62
2023-03-07T17:48:13.146Z,58.41
2023-03-07T17:53:35.898Z,58.40
2023-03-07T17:59:01.503Z,59.62
2023-03-07T18:04:22.551Z,60.38
2023-03-07T18:09:43.189Z,58.99
2023-03-07T18:15:05.210Z,58.72
2023-03-07T18:20:28.031Z,58.51
2023-03-07T18:25:59.294Z,58.62
2023-03-07T18:31:25.784Z,58.87
2023-03-07T18:36:51.494Z,58.90
2023-03-07T18:42:12.454Z,58.83
2023-03-07T18:47:33.389Z,58.31
2023-03-07T18:52:54.123Z,58.26
2023-03-07T18:58:16.447Z,58.43
2023-03-07T19:03:37.493Z,58.09
2023-03-07T19:08:59.808Z,58.27
2023-03-07T19:14:20.537Z,57.92
2023-03-07T19:19:41.350Z,57.99
2023-03-07T19:25:01.962Z,58.39
2023-03-07T19:30:22.812Z,57.78
2023-03-07T19:35:43.580Z,57.65
2023-03-07T19:41:09.474Z,57.56
2023-03-07T19:46:30.272Z,57.44
2023-03-07T19:51:50.904Z,57.76
2023-03-07T19:57:14.985Z,57.24
2023-03-07T20:02:36.041Z,57.45
2023-03-07T20:07:56.719Z,57.12
2023-03-07T20:13:17.590Z,57.50
2023-03-07T20:18:38.954Z,57.32
2023-03-07T20:24:00.928Z,56.97
2023-03-07T20:29:21.904Z,56.80
2023-03-07T20:34:42.985Z,57.35
2023-03-07T20:40:06.516Z,56.80
2023-03-07T20:45:27.243Z,56.79
2023-03-07T20:50:48.184Z,56.76
2023-03-07T20:56:09.477Z,56.65
2023-03-07T21:01:32.777Z,56.85
2023-03-07T21:06:54.265Z,56.59
2023-03-07T21:12:15.024Z,56.68
2023-03-07T21:17:37.122Z,56.44
2023-03-07T21:22:58.023Z,56.38
2023-03-07T21:28:18.862Z,56.90
2023-03-07T21:33:41.516Z,57.01
2023-03-07T21:39:05.284Z,56.54
2023-03-07T21:44:26.908Z,56.76
2023-03-07T21:49:47.582Z,56.67
2023-03-07T21:55:09.043Z,56.74
2023-03-07T22:00:30.272Z,56.68
2023-03-07T22:05:51.883Z,57.24
2023-03-07T22:11:13.988Z,56.97
2023-03-07T22:16:34.747Z,56.73
2023-03-07T22:21:55.474Z,56.94
2023-03-07T22:27:16.389Z,56.71
2023-03-07T22:32:37.256Z,56.39
2023-03-07T22:37:57.944Z,56.66
2023-03-07T22:43:18.940Z,56.95
2023-03-07T22:48:40.266Z,57.38
2023-03-07T22:54:03.371Z,57.11
2023-03-07T22:59:24.608Z,56.91
2023-03-07T23:04:45.384Z,57.47
2023-03-07T23:10:06.690Z,57.06
2023-03-07T23:15:27.446Z,57.08
2023-03-07T23:20:48.122Z,56.96
2023-03-07T23:26:09.318Z,57.38
2023-03-07T23:31:36.695Z,57.51
2023-03-07T23:36:57.743Z,57.47
2023-03-07T23:42:19.589Z,57.21
2023-03-07T23:47:40.644Z,57.72
2023-03-07T23:53:01.585Z,57.82
2023-03-07T23:58:22.238Z,57.47
